createdAt,value
2019-06-07T00:02:08.216Z,7.17
2019-06-07T00:04:29.596Z,7.47
2019-06-07T00:06:50.794Z,8.00
2019-06-07T00:09:14.529Z,7.60
2019-06-07T00:11:35.305Z,7.67
2019-06-07T00:13:56.506Z,8.73
2019-06-07T00:16:22.460Z,7.93
2019-06-07T00:18:40.801Z,7.47
2019-06-07T00:21:05.718Z,8.37
2019-06-07T00:23:27.061Z,7.67
2019-06-07T00:25:48.248Z,7.63
2019-06-07T00:28:10.697Z,7.77
2019-06-07T00:30:45.763Z,7.47
2019-06-07T00:32:55.392Z,8.15
2019-06-07T00:35:20.248Z,8.00
2019-06-07T00:37:39.909Z,8.60
2019-06-07T00:40:14.088Z,9.27
2019-06-07T00:42:24.619Z,9.27
2019-06-07T00:44:45.913Z,9.33
2019-06-07T00:47:07.094Z,11.70
2019-06-07T00:49:40.379Z,17.13
2019-06-07T00:51:53.525Z,12.67
2019-06-07T00:54:17.125Z,48.97
2019-06-07T00:56:37.884Z,60.40
2019-06-07T00:59:10.801Z,52.17
2019-06-07T01:01:25.310Z,339.73
2019-06-07T01:03:45.613Z,92.90
2019-06-07T01:06:06.929Z,145.20
2019-06-07T01:08:30.192Z,113.47
2019-06-07T01:10:53.961Z,127.57
2019-06-07T01:13:15.485Z,79.17
2019-06-07T01:15:37.877Z,262.10
2019-06-07T01:18:33.605Z,112.87
2019-06-07T01:20:24.202Z,407.07
2019-06-07T01:22:45.352Z,894.13
2019-06-07T01:25:06.944Z,142.10
2019-06-07T01:27:29.228Z,283.47
2019-06-07T01:29:50.414Z,368.53
2019-06-07T01:32:11.595Z,355.57
2019-06-07T01:34:32.819Z,471.67
2019-06-07T01:36:54.273Z,373.33
2019-06-07T01:39:16.383Z,469.13
2019-06-07T01:41:37.717Z,97.13
2019-06-07T01:43:59.176Z,225.57
2019-06-07T01:46:20.861Z,491.83
2019-06-07T01:48:49.552Z,42.47
2019-06-07T01:51:06.869Z,570.63
2019-06-07T01:53:29.115Z,269.60
2019-06-07T01:55:51.166Z,885.27
2019-06-07T01:58:12.364Z,509.77
2019-06-07T02:00:33.597Z,154.47
2019-06-07T02:02:54.836Z,55.87
2019-06-07T02:05:16.448Z,242.93
2019-06-07T02:07:38.690Z,152.40
2019-06-07T02:09:59.995Z,939.43
2019-06-07T02:12:28.022Z,468.33
2019-06-07T02:14:44.303Z,934.63
2019-06-07T02:17:05.617Z,828.63
2019-06-07T02:19:31.142Z,766.07
2019-06-07T02:21:50.152Z,336.93
2019-06-07T02:24:11.351Z,390.53
2019-06-07T02:26:32.745Z,734.20
2019-06-07T02:28:54.052Z,682.07
2019-06-07T02:31:15.260Z,467.30
2019-06-07T02:33:40.277Z,468.60
2019-06-07T02:35:59.552Z,173.90
2019-06-07T02:38:23.117Z,189.07
2019-06-07T02:40:44.057Z,351.37
2019-06-07T02:43:05.355Z,859.60
2019-06-07T02:45:29.913Z,476.20
2019-06-07T02:47:49.654Z,176.37
2019-06-07T02:50:12.372Z,487.20
2019-06-07T02:52:39.889Z,251.40
2019-06-07T02:54:56.765Z,380.50
2019-06-07T02:57:18.170Z,273.87
2019-06-07T03:00:02.917Z,133.97
2019-06-07T03:02:02.759Z,590.07
2019-06-07T03:04:27.225Z,643.13
2019-06-07T03:06:48.950Z,580.60
2019-06-07T03:09:10.136Z,501.20
2019-06-07T03:11:35.678Z,450.07
2019-06-07T03:13:55.464Z,568.70
2019-06-07T03:16:19.264Z,258.83
2019-06-07T03:18:55.082Z,461.73
2019-06-07T03:21:22.003Z,641.43
2019-06-07T03:23:43.714Z,521.37
2019-06-07T03:26:05.098Z,753.93
2019-06-07T03:28:30.003Z,679.00
2019-06-07T03:31:01.425Z,586.93
2019-06-07T03:33:13.965Z,757.47
2019-06-07T03:35:37.315Z,774.73
2019-06-07T03:37:58.313Z,394.60
2019-06-07T03:40:19.579Z,397.50
2019-06-07T03:42:40.898Z,567.80
2019-06-07T03:45:04.978Z,631.33
2019-06-07T03:47:30.583Z,511.20
2019-06-07T03:49:51.824Z,386.10
2019-06-07T03:52:13.216Z,852.00
2019-06-07T03:54:37.021Z,298.07
2019-06-07T03:56:57.612Z,671.50
2019-06-07T03:59:18.788Z,140.07
2019-06-07T04:01:41.258Z,358.23
2019-06-07T04:04:03.533Z,166.13
2019-06-07T04:06:25.806Z,34.27
2019-06-07T04:08:47.448Z,123.47
2019-06-07T04:11:08.908Z,346.33
2019-06-07T04:13:34.206Z,87.77
2019-06-07T04:15:53.505Z,163.57
2019-06-07T04:18:14.829Z,31.63
2019-06-07T04:20:38.583Z,62.10
2019-06-07T04:22:59.316Z,40.40
2019-06-07T04:25:20.578Z,30.33
2019-06-07T04:27:42.050Z,24.30
2019-06-07T04:30:08.078Z,71.47
2019-06-07T04:32:29.710Z,44.87
2019-06-07T04:34:51.609Z,14.57
2019-06-07T04:37:12.904Z,10.23
2019-06-07T04:39:38.134Z,32.67
2019-06-07T04:41:57.519Z,6.40
2019-06-07T04:44:20.337Z,6.33
2019-06-07T04:46:42.739Z,7.93
2019-06-07T04:49:04.271Z,6.20
2019-06-07T04:51:25.577Z,5.60
2019-06-07T04:53:46.989Z,10.20
2019-06-07T04:56:08.400Z,6.43
2019-06-07T04:58:30.413Z,7.00
2019-06-07T05:00:59.279Z,6.23
2019-06-07T05:03:15.710Z,6.23
2019-06-07T05:05:40.859Z,9.23
2019-06-07T05:08:07.158Z,6.60
2019-06-07T05:10:23.280Z,7.57
2019-06-07T05:12:46.010Z,5.73
2019-06-07T05:15:07.351Z,7.40
2019-06-07T05:17:29.929Z,7.80
2019-06-07T05:19:53.621Z,5.97
2019-06-07T05:22:15.078Z,5.90
2019-06-07T05:24:38.473Z,5.90
2019-06-07T05:26:59.384Z,6.67
2019-06-07T05:29:21.669Z,5.83
2019-06-07T05:31:45.507Z,13.30
2019-06-07T05:34:06.010Z,5.97
2019-06-07T05:36:27.237Z,5.50
2019-06-07T05:38:48.677Z,5.40
2019-06-07T05:41:10.061Z,5.00
2019-06-07T05:43:34.925Z,4.67
2019-06-07T05:45:54.461Z,5.27
2019-06-07T05:48:15.681Z,5.07
2019-06-07T05:50:44.822Z,5.47
2019-06-07T05:53:00.322Z,5.50
2019-06-07T05:55:21.612Z,4.73
2019-06-07T05:57:48.557Z,4.77
2019-06-07T06:00:06.264Z,4.90
2019-06-07T06:02:27.444Z,4.73
2019-06-07T06:04:49.467Z,4.90
2019-06-07T06:07:10.965Z,4.60
2019-06-07T06:09:32.267Z,4.70
2019-06-07T06:12:01.742Z,4.70
2019-06-07T06:14:19.156Z,4.63
2019-06-07T06:16:43.889Z,4.43
2019-06-07T06:19:03.597Z,5.07
2019-06-07T06:21:24.792Z,5.07
2019-06-07T06:23:50.747Z,4.90
2019-06-07T06:26:10.080Z,4.80
2019-06-07T06:28:31.276Z,4.03
2019-06-07T06:30:52.587Z,4.50
2019-06-07T06:33:30.673Z,4.10
2019-06-07T06:35:37.538Z,4.23
2019-06-07T06:37:59.570Z,4.17
2019-06-07T06:40:21.305Z,4.20
2019-06-07T06:42:44.651Z,4.10
2019-06-07T06:45:07.304Z,3.87
2019-06-07T06:47:28.492Z,4.30
2019-06-07T06:49:54.386Z,4.27
2019-06-07T06:52:14.077Z,3.60
2019-06-07T06:54:40.577Z,4.30
2019-06-07T06:57:17.934Z,4.00
2019-06-07T06:59:38.041Z,4.73
2019-06-07T07:01:49.391Z,4.00
2019-06-07T07:04:13.032Z,4.07
2019-06-07T07:06:32.905Z,4.60
2019-06-07T07:08:55.306Z,4.00
2019-06-07T07:11:16.521Z,3.70
2019-06-07T07:13:37.714Z,3.70
2019-06-07T07:15:58.929Z,4.07
2019-06-07T07:18:20.121Z,3.80
2019-06-07T07:20:43.520Z,3.60
2019-06-07T07:23:04.706Z,3.67
2019-06-07T07:25:25.934Z,4.27
2019-06-07T07:27:49.933Z,4.40
2019-06-07T07:30:36.183Z,4.43
2019-06-07T07:32:33.685Z,4.87
2019-06-07T07:35:00.351Z,4.27
2019-06-07T07:37:17.965Z,4.57
2019-06-07T07:39:39.180Z,4.07
2019-06-07T07:42:18.088Z,4.00
2019-06-07T07:44:23.513Z,4.80
2019-06-07T07:46:46.616Z,4.43
2019-06-07T07:49:07.899Z,4.40
2019-06-07T07:51:29.190Z,4.40
2019-06-07T07:54:01.475Z,4.70
2019-06-07T07:56:13.651Z,4.57
2019-06-07T07:58:34.920Z,4.50
2019-06-07T08:01:09.001Z,4.43
2019-06-07T08:03:19.374Z,4.13
2019-06-07T08:05:43.269Z,4.73
2019-06-07T08:08:07.529Z,4.73
2019-06-07T08:10:27.285Z,4.50
2019-06-07T08:13:07.250Z,4.47
2019-06-07T08:15:12.179Z,4.93
2019-06-07T08:17:33.714Z,4.63
2019-06-07T08:19:57.627Z,4.50
2019-06-07T08:22:18.247Z,5.00
2019-06-07T08:24:39.420Z,4.20
2019-06-07T08:27:24.681Z,4.17
2019-06-07T08:29:23.992Z,4.57
2019-06-07T08:31:45.624Z,4.37
2019-06-07T08:34:06.944Z,4.63
2019-06-07T08:36:41.493Z,4.40
2019-06-07T08:38:56.967Z,4.37
2019-06-07T08:41:14.365Z,4.60
2019-06-07T08:43:36.808Z,4.00
2019-06-07T08:46:02.356Z,4.67
2019-06-07T08:48:27.955Z,4.07
2019-06-07T08:50:44.188Z,4.60
2019-06-07T08:53:12.214Z,3.93
2019-06-07T08:55:28.510Z,3.73
2019-06-07T08:57:53.674Z,4.70
2019-06-07T09:02:37.128Z,4.60
2019-06-07T09:05:03.164Z,4.43
2019-06-07T09:07:22.148Z,4.60
2019-06-07T09:09:43.658Z,4.57
2019-06-07T09:12:10.207Z,4.70
2019-06-07T09:14:28.204Z,4.53
2019-06-07T09:16:49.393Z,3.83
2019-06-07T09:19:11.295Z,3.60
2019-06-07T09:21:32.715Z,3.70
2019-06-07T09:23:54.702Z,4.07
2019-06-07T09:26:18.967Z,4.20
2019-06-07T09:28:40.893Z,4.10
2019-06-07T09:31:08.903Z,3.47
2019-06-07T09:33:26.728Z,3.57
2019-06-07T09:35:48.140Z,3.77
2019-06-07T09:38:23.414Z,3.73
2019-06-07T09:40:32.533Z,3.60
2019-06-07T09:43:36.943Z,3.70
2019-06-07T09:45:16.840Z,3.77
2019-06-07T09:47:38.043Z,3.60
2019-06-07T09:50:04.100Z,4.60
2019-06-07T09:52:22.365Z,4.53
2019-06-07T09:55:06.240Z,4.10
2019-06-07T09:57:16.355Z,3.60
2019-06-07T09:59:31.324Z,4.60
2019-06-07T10:01:52.522Z,4.87
2019-06-07T10:04:30.339Z,3.50
2019-06-07T10:06:36.824Z,4.03
2019-06-07T10:11:21.215Z,4.33
2019-06-07T10:13:42.389Z,4.10
2019-06-07T10:16:04.783Z,3.20
2019-06-07T10:18:26.352Z,3.27
2019-06-07T10:20:47.542Z,3.30
2019-06-07T10:23:10.132Z,3.13
2019-06-07T10:25:31.442Z,4.80
2019-06-07T10:27:52.636Z,3.40
2019-06-07T10:30:14.509Z,2.70
2019-06-07T10:32:35.782Z,3.50
2019-06-07T10:34:57.330Z,2.80
2019-06-07T10:37:18.547Z,3.27
2019-06-07T10:39:48.698Z,3.83
2019-06-07T10:42:04.616Z,2.97
2019-06-07T10:44:26.509Z,3.10
2019-06-07T10:46:47.721Z,2.90
2019-06-07T10:49:10.091Z,3.13
2019-06-07T10:51:31.651Z,3.00
2019-06-07T10:53:52.940Z,3.10
2019-06-07T10:56:14.132Z,2.60
2019-06-07T10:58:35.328Z,2.70
2019-06-07T11:00:56.528Z,2.60
2019-06-07T11:03:17.837Z,2.90
2019-06-07T11:05:39.027Z,2.90
2019-06-07T11:08:00.759Z,2.97
2019-06-07T11:10:22.107Z,2.70
2019-06-07T11:12:43.333Z,2.90
2019-06-07T11:15:09.067Z,2.50
2019-06-07T11:17:33.171Z,2.67
2019-06-07T11:19:54.629Z,2.80
2019-06-07T11:22:16.903Z,2.80
2019-06-07T11:24:38.421Z,2.80
2019-06-07T11:26:59.915Z,3.10
2019-06-07T11:29:21.401Z,3.10
2019-06-07T11:31:42.963Z,4.00
2019-06-07T11:34:06.398Z,2.90
2019-06-07T11:36:28.401Z,2.50
2019-06-07T11:38:52.375Z,2.60
2019-06-07T11:41:15.662Z,3.00
2019-06-07T11:43:37.584Z,2.90
2019-06-07T11:45:59.379Z,2.97
2019-06-07T11:48:23.208Z,2.92
2019-06-07T11:50:44.666Z,4.95
2019-06-07T11:53:06.495Z,3.10
2019-06-07T11:55:28.974Z,2.73
2019-06-07T11:57:50.733Z,2.90
2019-06-07T12:00:18.255Z,2.87
2019-06-07T12:02:40.038Z,3.45
2019-06-07T12:05:01.507Z,3.37
2019-06-07T12:07:23.061Z,2.92
2019-06-07T12:09:55.913Z,2.70
2019-06-07T12:12:08.201Z,2.45
2019-06-07T12:14:29.479Z,2.50
2019-06-07T12:16:50.817Z,2.92
2019-06-07T12:19:13.500Z,2.92
2019-06-07T12:21:34.867Z,2.90
2019-06-07T12:23:56.450Z,2.75
2019-06-07T12:26:20.659Z,3.10
2019-06-07T12:28:42.029Z,2.70
2019-06-07T12:31:03.287Z,2.72
2019-06-07T12:33:24.712Z,3.05
2019-06-07T12:35:46.149Z,2.33
2019-06-07T12:38:07.577Z,2.73
2019-06-07T12:40:32.231Z,2.85
2019-06-07T12:42:51.981Z,2.70
2019-06-07T12:45:30.758Z,2.90
2019-06-07T12:47:36.477Z,3.00
2019-06-07T12:49:57.705Z,2.80
2019-06-07T12:52:21.026Z,2.90
2019-06-07T12:54:42.443Z,2.72
2019-06-07T12:57:04.842Z,2.52
2019-06-07T12:59:26.051Z,2.80
2019-06-07T13:01:47.227Z,2.50
2019-06-07T13:04:08.432Z,2.70
2019-06-07T13:06:29.618Z,2.70
2019-06-07T13:08:50.825Z,2.70
2019-06-07T13:11:17.705Z,2.60
2019-06-07T13:13:35.516Z,2.58
2019-06-07T13:15:56.893Z,2.65
2019-06-07T13:18:19.825Z,2.65
2019-06-07T13:20:41.464Z,2.90
2019-06-07T13:23:03.099Z,2.80
2019-06-07T13:25:41.172Z,2.90
2019-06-07T13:27:48.297Z,2.62
2019-06-07T13:30:25.543Z,4.00
2019-06-07T13:32:57.735Z,2.70
2019-06-07T13:35:21.697Z,2.70
2019-06-07T13:37:42.060Z,2.85
2019-06-07T13:40:04.913Z,3.25
2019-06-07T13:42:26.120Z,2.80
2019-06-07T13:44:47.712Z,3.33
2019-06-07T13:47:16.878Z,3.33
2019-06-07T13:49:38.277Z,4.00
2019-06-07T13:52:00.234Z,3.10
2019-06-07T13:54:25.564Z,2.90
2019-06-07T13:57:01.274Z,3.25
2019-06-07T13:59:10.017Z,2.90
2019-06-07T14:01:32.276Z,2.80
2019-06-07T14:03:53.734Z,2.83
2019-06-07T14:06:14.929Z,2.90
2019-06-07T14:08:36.141Z,3.10
2019-06-07T14:10:57.432Z,2.83
2019-06-07T14:13:19.438Z,3.00
2019-06-07T14:15:40.736Z,2.87
2019-06-07T14:18:01.996Z,3.22
2019-06-07T14:20:26.705Z,3.20
2019-06-07T14:22:49.690Z,2.95
2019-06-07T14:25:11.869Z,3.65
2019-06-07T14:27:35.409Z,4.17
2019-06-07T14:30:00.252Z,3.40
2019-06-07T14:32:24.912Z,3.05
2019-06-07T14:34:47.021Z,3.87
2019-06-07T14:37:13.540Z,3.92
2019-06-07T14:39:35.299Z,3.30
2019-06-07T14:42:08.510Z,3.20
2019-06-07T14:44:20.319Z,3.25
2019-06-07T14:46:44.365Z,3.33
2019-06-07T14:49:07.995Z,3.72
2019-06-07T14:51:32.930Z,3.93
2019-06-07T14:53:53.536Z,4.33
2019-06-07T14:56:18.054Z,3.70
2019-06-07T14:58:43.544Z,3.50
2019-06-07T15:01:08.138Z,4.60
2019-06-07T15:03:30.521Z,6.50
2019-06-07T15:05:52.444Z,8.47
2019-06-07T15:08:13.702Z,7.73
2019-06-07T15:10:39.461Z,7.97
2019-06-07T15:13:01.450Z,11.17
2019-06-07T15:15:32.773Z,5.23
2019-06-07T15:17:54.113Z,3.83
2019-06-07T15:20:15.445Z,5.03
2019-06-07T15:22:38.433Z,3.80
2019-06-07T15:24:59.919Z,4.20
2019-06-07T15:27:21.209Z,4.27
2019-06-07T15:29:42.522Z,5.13
2019-06-07T15:32:04.090Z,9.47
2019-06-07T15:34:25.284Z,5.53
2019-06-07T15:36:46.832Z,6.07
2019-06-07T15:39:08.198Z,5.60
2019-06-07T15:41:30.939Z,4.03
2019-06-07T15:43:52.905Z,4.53
2019-06-07T15:46:16.893Z,4.40
2019-06-07T15:48:38.455Z,4.33
2019-06-07T15:50:59.714Z,3.60
2019-06-07T15:53:21.938Z,4.00
2019-06-07T15:55:45.617Z,3.70
2019-06-07T15:58:06.657Z,3.00
2019-06-07T16:00:27.845Z,3.40
2019-06-07T16:02:49.075Z,3.37
2019-06-07T16:05:11.491Z,3.47
2019-06-07T16:07:34.086Z,3.93
2019-06-07T16:09:55.370Z,2.93
2019-06-07T16:12:16.593Z,2.90
2019-06-07T16:14:39.082Z,3.47
2019-06-07T16:17:00.406Z,3.03
2019-06-07T16:19:21.798Z,2.70
2019-06-07T16:21:43.671Z,3.40
2019-06-07T16:24:05.034Z,3.00
2019-06-07T16:26:26.234Z,2.97
2019-06-07T16:28:47.420Z,3.70
2019-06-07T16:31:08.808Z,2.90
2019-06-07T16:33:30.037Z,3.00
2019-06-07T16:35:51.237Z,2.93
2019-06-07T16:38:12.438Z,3.03
2019-06-07T16:40:33.639Z,2.50
2019-06-07T16:42:55.713Z,2.47
2019-06-07T16:45:18.496Z,3.03
2019-06-07T16:47:42.745Z,4.20
2019-06-07T16:50:08.048Z,5.10
2019-06-07T16:52:29.243Z,2.60
2019-06-07T16:54:50.439Z,2.10
2019-06-07T16:57:11.642Z,2.20
2019-06-07T16:59:32.958Z,9.17
2019-06-07T17:01:54.217Z,2.10
2019-06-07T17:04:15.555Z,2.00
2019-06-07T17:06:37.598Z,3.63
2019-06-07T17:09:00.724Z,2.00
2019-06-07T17:11:22.865Z,3.67
2019-06-07T17:13:44.525Z,2.00
2019-06-07T17:16:05.926Z,1.70
2019-06-07T17:18:27.349Z,1.60
2019-06-07T17:20:49.419Z,1.80
2019-06-07T17:23:10.765Z,1.40
2019-06-07T17:25:31.958Z,1.30
2019-06-07T17:27:53.149Z,1.37
2019-06-07T17:30:14.658Z,1.13
2019-06-07T17:32:48.471Z,1.40
2019-06-07T17:34:59.046Z,1.30
2019-06-07T17:37:20.277Z,1.80
2019-06-07T17:39:43.380Z,1.67
2019-06-07T17:42:04.734Z,1.50
2019-06-07T17:44:25.961Z,1.60
2019-06-07T17:46:47.617Z,5.80
2019-06-07T17:49:08.969Z,8.67
2019-06-07T17:51:30.168Z,2.43
2019-06-07T17:53:52.074Z,1.30
2019-06-07T17:56:13.401Z,1.33
2019-06-07T17:58:34.596Z,1.50
2019-06-07T18:00:55.791Z,1.17
2019-06-07T18:03:17.689Z,1.60
2019-06-07T18:05:38.962Z,1.30
2019-06-07T18:08:00.383Z,1.10
2019-06-07T18:10:36.553Z,0.90
2019-06-07T18:12:57.779Z,1.10
2019-06-07T18:15:22.770Z,1.30
2019-06-07T18:17:44.597Z,1.10
2019-06-07T18:20:07.461Z,1.10
2019-06-07T18:22:28.654Z,1.30
2019-06-07T18:24:50.617Z,0.83
2019-06-07T18:27:12.000Z,1.27
2019-06-07T18:29:33.210Z,1.03
2019-06-07T18:31:55.240Z,1.10
2019-06-07T18:34:17.615Z,1.07
2019-06-07T18:36:38.805Z,1.20
2019-06-07T18:39:00.012Z,1.30
2019-06-07T18:41:21.196Z,2.10
2019-06-07T18:43:42.419Z,2.80
2019-06-07T18:46:03.617Z,4.00
2019-06-07T18:48:24.821Z,3.93
2019-06-07T18:50:46.509Z,2.63
2019-06-07T18:53:07.827Z,3.97
2019-06-07T18:55:29.049Z,2.20
2019-06-07T18:57:50.297Z,2.70
2019-06-07T19:00:16.777Z,2.40
2019-06-07T19:02:38.474Z,1.40
2019-06-07T19:04:59.697Z,4.57
2019-06-07T19:07:20.896Z,2.20
2019-06-07T19:09:42.092Z,3.60
2019-06-07T19:12:03.405Z,2.90
2019-06-07T19:14:36.736Z,4.03
2019-06-07T19:16:47.709Z,3.70
2019-06-07T19:19:08.900Z,2.60
2019-06-07T19:21:32.283Z,1.60
2019-06-07T19:23:53.839Z,2.17
2019-06-07T19:26:15.077Z,4.17
2019-06-07T19:28:36.268Z,3.50
2019-06-07T19:30:57.529Z,3.03
2019-06-07T19:33:18.901Z,3.73
2019-06-07T19:35:40.198Z,3.20
2019-06-07T19:38:02.601Z,7.80
2019-06-07T19:40:23.776Z,2.87
2019-06-07T19:42:45.026Z,2.30
2019-06-07T19:45:28.912Z,3.30
2019-06-07T19:47:30.187Z,2.83
2019-06-07T19:49:52.965Z,3.30
2019-06-07T19:52:15.316Z,2.10
2019-06-07T19:54:36.557Z,2.87
2019-06-07T19:56:57.748Z,2.17
2019-06-07T19:59:18.975Z,1.20
2019-06-07T20:01:40.316Z,3.20
2019-06-07T20:04:02.481Z,2.40
2019-06-07T20:06:24.004Z,4.57
2019-06-07T20:08:45.316Z,2.90
2019-06-07T20:11:06.513Z,2.90
2019-06-07T20:13:27.738Z,2.00
2019-06-07T20:15:48.919Z,1.73
2019-06-07T20:18:11.263Z,2.30
2019-06-07T20:20:32.458Z,1.40
2019-06-07T20:22:53.652Z,1.80
2019-06-07T20:25:15.051Z,1.90
2019-06-07T20:27:36.255Z,1.80
2019-06-07T20:29:58.164Z,2.37
2019-06-07T20:32:19.442Z,1.83
2019-06-07T20:34:44.357Z,1.70
2019-06-07T20:37:05.554Z,1.43
2019-06-07T20:39:27.081Z,4.47
2019-06-07T20:41:48.317Z,4.30
2019-06-07T20:44:09.544Z,3.20
2019-06-07T20:46:30.745Z,1.80
2019-06-07T20:48:52.245Z,2.90
2019-06-07T20:51:13.436Z,8.27
2019-06-07T20:53:34.647Z,5.07
2019-06-07T20:55:55.914Z,3.97
2019-06-07T20:58:17.113Z,2.20
2019-06-07T21:00:38.324Z,2.50
2019-06-07T21:03:01.001Z,3.47
2019-06-07T21:05:22.477Z,4.20
2019-06-07T21:07:43.681Z,3.10
2019-06-07T21:10:08.379Z,8.30
2019-06-07T21:12:29.764Z,2.70
2019-06-07T21:14:50.977Z,2.50
2019-06-07T21:17:12.168Z,1.87
2019-06-07T21:19:33.382Z,2.43
2019-06-07T21:21:54.584Z,2.70
2019-06-07T21:24:15.772Z,1.70
2019-06-07T21:26:36.957Z,7.27
2019-06-07T21:28:58.305Z,7.33
2019-06-07T21:31:19.514Z,7.07
2019-06-07T21:33:40.819Z,1.50
2019-06-07T21:36:02.085Z,1.83
2019-06-07T21:38:23.637Z,1.50
2019-06-07T21:40:44.829Z,1.40
2019-06-07T21:43:06.372Z,1.20
2019-06-07T21:45:27.677Z,1.33
2019-06-07T21:47:48.864Z,1.23
2019-06-07T21:50:10.951Z,1.33
2019-06-07T21:52:32.248Z,1.20
2019-06-07T21:54:53.451Z,1.30
2019-06-07T21:57:14.641Z,1.27
2019-06-07T21:59:35.856Z,1.27
2019-06-07T22:01:57.150Z,1.10
2019-06-07T22:04:18.361Z,1.17
2019-06-07T22:06:39.540Z,1.10
2019-06-07T22:09:00.769Z,1.20
2019-06-07T22:11:22.005Z,1.13
2019-06-07T22:13:43.403Z,1.27
2019-06-07T22:16:19.906Z,1.10
2019-06-07T22:18:27.709Z,1.17
2019-06-07T22:20:48.917Z,1.17
2019-06-07T22:23:10.672Z,1.10
2019-06-07T22:25:31.920Z,1.30
2019-06-07T22:27:53.100Z,1.27
2019-06-07T22:30:14.612Z,1.10
2019-06-07T22:32:35.895Z,1.20
2019-06-07T22:34:57.092Z,1.57
2019-06-07T22:37:23.278Z,1.10
2019-06-07T22:39:41.375Z,1.27
2019-06-07T22:42:04.468Z,1.20
2019-06-07T22:44:25.785Z,1.20
2019-06-07T22:46:46.996Z,1.10
2019-06-07T22:49:09.137Z,1.03
2019-06-07T22:51:30.490Z,1.20
2019-06-07T22:53:51.684Z,1.07
2019-06-07T22:56:16.014Z,1.27
2019-06-07T22:58:37.278Z,1.30
2019-06-07T23:00:58.557Z,1.13
2019-06-07T23:03:20.864Z,1.20
2019-06-07T23:05:42.339Z,1.20
2019-06-07T23:08:03.802Z,1.10
2019-06-07T23:10:25.017Z,1.10
2019-06-07T23:12:47.783Z,1.10
2019-06-07T23:15:09.384Z,1.10
2019-06-07T23:17:30.708Z,1.30
2019-06-07T23:19:51.904Z,1.30
2019-06-07T23:22:13.802Z,1.27
2019-06-07T23:24:35.086Z,1.03
2019-06-07T23:26:56.361Z,1.20
2019-06-07T23:29:18.641Z,1.10
2019-06-07T23:31:39.947Z,0.90
2019-06-07T23:34:01.133Z,1.00
2019-06-07T23:36:22.577Z,1.00
2019-06-07T23:38:43.758Z,1.10
2019-06-07T23:41:04.988Z,1.20
2019-06-07T23:43:26.510Z,1.20
2019-06-07T23:45:47.793Z,1.07
2019-06-07T23:48:08.989Z,1.00
2019-06-07T23:50:30.190Z,1.10
2019-06-07T23:52:51.586Z,1.10
2019-06-07T23:55:13.857Z,1.20
2019-06-07T23:57:35.211Z,1.00
2019-06-07T23:59:56.381Z,1.20
